Time;durP1;ratioP1;P1;durP2;ratioP2;P2;SDS_P1;SDS_P2;PMS_P1;PMS_P2;Temp;Humidity;BMP_temperature;BMP_pressure;BME280_temperature;BME280_humidity;BME280_pressure;Samples;Min_cycle;Max_cycle;Signal;HPM_P1;HPM_P2
2022/10/09 00:01:04;;;;;;;12.85;2.65;;;8.80;99.90;;;;;;4980408;28;20085;-72
2022/10/09 00:03:29;;;;;;;12.38;2.40;;;8.70;99.90;;;;;;4977733;28;20034;-71
2022/10/09 00:05:55;;;;;;;11.75;2.13;;;8.80;99.90;;;;;;4977641;28;20035;-72
2022/10/09 00:08:20;;;;;;;8.27;2.70;;;8.80;99.90;;;;;;4980726;28;20042;-70
2022/10/09 00:10:46;;;;;;;10.45;2.97;;;8.70;99.90;;;;;;4981412;28;20042;-70
2022/10/09 00:13:12;;;;;;;9.82;2.28;;;8.70;99.90;;;;;;4981043;28;20081;-71
2022/10/09 00:15:39;;;;;;;6.68;2.70;;;8.70;99.90;;;;;;4979172;28;20038;-71
2022/10/09 00:18:06;;;;;;;9.45;1.80;;;8.80;99.90;;;;;;4978827;28;20061;-70
2022/10/09 00:20:39;;;;;;;5.97;1.63;;;8.70;99.90;;;;;;4981175;28;20093;-70
2022/10/09 00:23:06;;;;;;;6.80;2.42;;;8.70;99.90;;;;;;4979586;28;20177;-71
2022/10/09 00:25:32;;;;;;;4.18;1.88;;;8.70;99.90;;;;;;4980634;28;20042;-71
2022/10/09 00:27:58;;;;;;;10.23;2.38;;;8.70;99.90;;;;;;4977064;28;20414;-70
2022/10/09 00:30:24;;;;;;;4.93;1.92;;;8.70;99.90;;;;;;4977886;28;20039;-70
2022/10/09 00:32:49;;;;;;;4.53;1.33;;;8.70;99.90;;;;;;4982215;28;20039;-70
2022/10/09 00:35:15;;;;;;;7.00;1.60;;;8.70;99.90;;;;;;4979390;28;20050;-71
2022/10/09 00:37:40;;;;;;;6.57;1.35;;;8.70;99.90;;;;;;4980014;28;20030;-71
2022/10/09 00:40:06;;;;;;;6.03;1.70;;;8.80;99.90;;;;;;4977649;28;20050;-70
2022/10/09 00:42:32;;;;;;;6.60;1.98;;;8.70;99.90;;;;;;4980692;28;20534;-70
2022/10/09 00:45:00;;;;;;;7.10;1.58;;;8.70;99.90;;;;;;4976707;28;20092;-70
2022/10/09 00:47:38;;;;;;;4.30;1.95;;;8.70;99.90;;;;;;4981192;28;20030;-70
2022/10/09 00:50:07;;;;;;;4.20;1.60;;;8.60;99.90;;;;;;4976422;28;20153;-70
2022/10/09 00:52:33;;;;;;;6.60;1.98;;;8.60;99.90;;;;;;4979198;28;20097;-69
2022/10/09 00:55:00;;;;;;;4.53;1.40;;;8.60;99.90;;;;;;4978092;28;20492;-70
2022/10/09 00:57:26;;;;;;;4.72;1.67;;;8.60;99.90;;;;;;4979735;28;20688;-70
2022/10/09 00:59:52;;;;;;;6.50;2.08;;;8.60;99.90;;;;;;4981526;28;20038;-69
2022/10/09 01:02:18;;;;;;;7.43;1.30;;;8.70;99.90;;;;;;4983668;28;20038;-69
2022/10/09 01:04:43;;;;;;;5.05;1.77;;;8.70;99.90;;;;;;4982528;28;20035;-69
2022/10/09 01:07:47;;;;;;;7.57;1.27;;;8.70;99.90;;;;;;4983472;28;20399;-70
2022/10/09 01:10:40;;;;;;;9.85;1.52;;;8.70;99.90;;;;;;4959108;28;20095;-71
2022/10/09 01:13:15;;;;;;;6.32;1.73;;;8.70;99.90;;;;;;4958405;28;20077;-71
2022/10/09 01:15:51;;;;;;;4.88;2.00;;;8.70;99.90;;;;;;4976365;28;20039;-71
2022/10/09 01:18:42;;;;;;;8.15;1.60;;;8.80;99.90;;;;;;4982135;28;20098;-70
2022/10/09 01:21:15;;;;;;;4.63;1.45;;;8.80;99.90;;;;;;4980991;28;20110;-69
2022/10/09 01:24:14;;;;;;;7.85;1.35;;;8.70;99.90;;;;;;4981169;28;20026;-70
2022/10/09 01:27:24;;;;;;;9.02;1.30;;;8.70;99.90;;;;;;4983637;28;20066;-70
2022/10/09 01:30:01;;;;;;;2.33;1.17;;;8.70;99.90;;;;;;4981637;28;20429;-69
2022/10/09 01:32:31;;;;;;;10.88;1.60;;;8.60;99.90;;;;;;4976047;28;20062;-70
2022/10/09 01:34:58;;;;;;;6.60;1.73;;;8.60;99.90;;;;;;4983065;28;20512;-70
2022/10/09 01:37:26;;;;;;;3.47;1.00;;;8.60;99.90;;;;;;4980945;28;20037;-70
2022/10/09 01:39:52;;;;;;;4.25;1.70;;;8.60;99.90;;;;;;4983115;28;20034;-70
2022/10/09 01:42:21;;;;;;;6.90;1.27;;;8.50;99.90;;;;;;4980968;28;20561;-70
2022/10/09 01:44:47;;;;;;;7.20;1.50;;;8.50;99.90;;;;;;4982224;28;20108;-71
2022/10/09 01:47:17;;;;;;;4.88;2.28;;;8.50;99.90;;;;;;4979807;28;20500;-71
2022/10/09 01:49:51;;;;;;;;;;;8.50;99.90;;;;;;4980970;28;20754;-71
2022/10/09 01:52:20;;;;;;;5.63;1.40;;;8.50;99.90;;;;;;4983328;28;19972;-71
2022/10/09 01:54:48;;;;;;;5.72;1.83;;;8.50;99.90;;;;;;4982954;28;20549;-70
2022/10/09 01:57:21;;;;;;;8.13;1.80;;;8.50;99.90;;;;;;4980045;28;20038;-71
2022/10/09 01:59:48;;;;;;;11.82;2.50;;;8.50;99.90;;;;;;4983845;28;20042;-69
2022/10/09 02:02:14;;;;;;;4.38;1.30;;;8.50;99.90;;;;;;4981358;28;20034;-70
2022/10/09 02:04:42;;;;;;;7.00;1.40;;;8.50;99.90;;;;;;4981209;28;20097;-70
2022/10/09 02:07:08;;;;;;;10.38;1.73;;;8.50;99.90;;;;;;4982396;28;20069;-70
2022/10/09 02:09:34;;;;;;;5.28;1.60;;;8.50;99.90;;;;;;4980976;28;20058;-69
2022/10/09 02:12:05;;;;;;;4.10;1.48;;;8.40;99.90;;;;;;4983989;28;20027;-70
2022/10/09 02:14:32;;;;;;;6.15;1.63;;;8.40;99.90;;;;;;4981918;28;20031;-70
2022/10/09 02:17:10;;;;;;;5.82;1.30;;;8.40;99.90;;;;;;4981026;28;20150;-70
2022/10/09 02:19:46;;;;;;;6.45;1.73;;;8.40;99.90;;;;;;4981848;28;20042;-69
2022/10/09 02:22:30;;;;;;;7.13;1.38;;;8.40;99.90;;;;;;4981890;28;20035;-70
2022/10/09 02:24:59;;;;;;;5.13;1.55;;;8.30;99.90;;;;;;4977194;28;20038;-69
2022/10/09 02:27:25;;;;;;;6.05;1.88;;;8.30;99.90;;;;;;4972356;28;20065;-69
2022/10/09 02:29:52;;;;;;;6.38;1.98;;;8.40;99.90;;;;;;4980096;28;20039;-70
2022/10/09 02:32:17;;;;;;;5.03;1.80;;;8.30;99.90;;;;;;4982685;28;20031;-70
2022/10/09 02:34:43;;;;;;;8.18;1.38;;;8.40;99.90;;;;;;4980468;28;20053;-70
2022/10/09 02:37:09;;;;;;;12.60;1.67;;;8.30;99.90;;;;;;4981866;28;20031;-69
2022/10/09 02:39:35;;;;;;;6.95;2.00;;;8.30;99.90;;;;;;4980666;28;20089;-70
2022/10/09 02:42:00;;;;;;;4.95;1.58;;;8.30;99.90;;;;;;4980866;28;20030;-70
2022/10/09 02:44:26;;;;;;;8.20;1.55;;;8.40;99.90;;;;;;4981996;28;20517;-69
2022/10/09 02:46:52;;;;;;;7.55;1.52;;;8.40;99.90;;;;;;4979881;28;20035;-70
2022/10/09 02:49:17;;;;;;;5.38;1.50;;;8.40;99.90;;;;;;4975410;28;20101;-70
2022/10/09 02:51:43;;;;;;;9.60;1.55;;;8.30;99.90;;;;;;4982755;28;20105;-70
2022/10/09 02:54:09;;;;;;;9.40;1.60;;;8.30;99.90;;;;;;4979232;28;20038;-69
2022/10/09 02:56:35;;;;;;;6.32;1.85;;;8.30;99.90;;;;;;4979952;28;20043;-70
2022/10/09 02:59:00;;;;;;;6.25;1.65;;;8.30;99.90;;;;;;4980799;28;20077;-70
2022/10/09 03:01:26;;;;;;;9.15;2.67;;;8.30;99.90;;;;;;4980087;28;20034;-69
2022/10/09 03:03:52;;;;;;;4.65;2.05;;;8.30;99.90;;;;;;4981345;28;20043;-70
2022/10/09 03:06:21;;;;;;;7.93;1.65;;;8.30;99.90;;;;;;4978998;28;20058;-70
2022/10/09 03:08:48;;;;;;;6.82;2.13;;;8.30;99.90;;;;;;4975715;28;20039;-70
2022/10/09 03:11:15;;;;;;;3.70;1.23;;;8.20;99.90;;;;;;4984317;28;20506;-70
2022/10/09 03:13:41;;;;;;;6.63;1.70;;;8.20;99.90;;;;;;4978577;28;20076;-71
2022/10/09 03:16:12;;;;;;;5.38;1.50;;;8.20;99.90;;;;;;4980335;28;20111;-70
2022/10/09 03:18:38;;;;;;;5.53;1.70;;;8.20;99.90;;;;;;4979008;28;20061;-70
2022/10/09 03:21:08;;;;;;;5.63;2.08;;;8.20;99.90;;;;;;4980298;28;20495;-70
2022/10/09 03:23:34;;;;;;;;;;;8.20;99.90;;;;;;4980461;28;20027;-70
2022/10/09 03:26:03;;;;;;;7.78;2.05;;;8.20;99.90;;;;;;4981822;28;19917;-70
2022/10/09 03:28:28;;;;;;;6.03;1.70;;;8.20;99.90;;;;;;4978592;28;20035;-69
2022/10/09 03:30:54;;;;;;;5.32;1.85;;;8.20;99.90;;;;;;4981694;28;20708;-70
2022/10/09 03:33:20;;;;;;;6.05;1.83;;;8.20;99.90;;;;;;4977056;28;20049;-70
2022/10/09 03:35:47;;;;;;;10.30;2.92;;;8.20;99.90;;;;;;4982001;28;20042;-70
2022/10/09 03:38:13;;;;;;;9.05;2.75;;;8.20;99.90;;;;;;4978535;28;20039;-70
2022/10/09 03:40:38;;;;;;;7.60;1.98;;;8.20;99.90;;;;;;4981323;28;20507;-70
2022/10/09 03:43:04;;;;;;;5.78;1.92;;;8.20;99.90;;;;;;4978691;28;20125;-70
2022/10/09 03:45:30;;;;;;;5.30;2.17;;;8.20;99.90;;;;;;4979726;28;20117;-70
2022/10/09 03:47:55;;;;;;;6.50;2.65;;;8.20;99.90;;;;;;4980070;28;20068;-70
2022/10/09 03:50:21;;;;;;;8.45;2.05;;;8.20;99.90;;;;;;4976672;28;20054;-70
2022/10/09 03:52:46;;;;;;;5.10;2.35;;;8.10;99.90;;;;;;4980803;28;20521;-70
2022/10/09 03:55:12;;;;;;;6.60;1.83;;;8.10;99.90;;;;;;4978649;28;20046;-70
2022/10/09 03:57:38;;;;;;;5.43;1.83;;;8.10;99.90;;;;;;4981330;28;20030;-70
2022/10/09 04:00:05;;;;;;;3.65;2.00;;;8.10;99.90;;;;;;4980052;28;20062;-70
2022/10/09 04:02:31;;;;;;;9.15;2.42;;;8.10;99.90;;;;;;4979655;28;20039;-70
2022/10/09 04:04:57;;;;;;;6.97;2.30;;;8.00;99.90;;;;;;4980487;28;20546;-69
2022/10/09 04:07:22;;;;;;;7.07;1.90;;;8.00;99.90;;;;;;4981624;28;20126;-70
2022/10/09 04:09:48;;;;;;;4.78;1.58;;;8.00;99.90;;;;;;4981908;28;20041;-70
2022/10/09 04:12:14;;;;;;;5.03;1.77;;;8.00;99.90;;;;;;4978787;28;20045;-70
2022/10/09 04:14:39;;;;;;;4.72;1.50;;;8.00;99.90;;;;;;4981709;28;20471;-71
2022/10/09 04:17:05;;;;;;;4.30;1.85;;;8.00;99.90;;;;;;4979678;28;20135;-70
2022/10/09 04:19:31;;;;;;;9.60;4.03;;;7.90;99.90;;;;;;4979914;28;20582;-70
2022/10/09 04:21:57;;;;;;;8.00;2.15;;;7.90;99.90;;;;;;4981656;28;20133;-72
2022/10/09 04:24:22;;;;;;;7.90;2.22;;;7.90;99.90;;;;;;4980088;28;20048;-70
2022/10/09 04:26:48;;;;;;;6.20;2.00;;;7.90;99.90;;;;;;4982372;28;20058;-69
2022/10/09 04:29:13;;;;;;;7.82;1.73;;;7.90;99.90;;;;;;4982065;28;20045;-70
2022/10/09 04:31:39;;;;;;;15.40;3.17;;;7.90;99.90;;;;;;4977368;28;20094;-69
2022/10/09 04:34:05;;;;;;;5.07;1.60;;;7.80;99.90;;;;;;4983944;28;20495;-70
2022/10/09 04:36:30;;;;;;;3.85;1.98;;;7.80;99.90;;;;;;4983288;28;20576;-70
2022/10/09 04:38:56;;;;;;;8.43;2.55;;;7.90;99.90;;;;;;4986739;28;20030;-70
2022/10/09 04:41:21;;;;;;;8.98;2.83;;;7.80;99.90;;;;;;4984624;28;20121;-70
2022/10/09 04:43:47;;;;;;;4.60;2.20;;;7.80;99.90;;;;;;4982261;28;20419;-71
2022/10/09 04:46:14;;;;;;;11.63;1.98;;;7.80;99.90;;;;;;4984180;28;20095;-70
2022/10/09 04:48:41;;;;;;;4.35;1.73;;;7.80;99.90;;;;;;4980902;28;20030;-70
2022/10/09 04:51:07;;;;;;;4.72;2.45;;;7.70;99.90;;;;;;4985034;28;20407;-70
2022/10/09 04:53:34;;;;;;;6.93;2.15;;;7.70;99.90;;;;;;4982463;28;20031;-70
2022/10/09 04:56:04;;;;;;;9.55;2.30;;;7.70;99.90;;;;;;4984152;28;20042;-70
2022/10/09 04:58:30;;;;;;;8.90;2.28;;;7.70;99.90;;;;;;4981495;28;20034;-70
2022/10/09 05:00:56;;;;;;;7.25;1.80;;;7.70;99.90;;;;;;4983000;28;20106;-70
2022/10/09 05:03:22;;;;;;;8.63;2.38;;;7.70;99.90;;;;;;4983767;28;20117;-70
2022/10/09 05:05:47;;;;;;;9.30;2.15;;;7.70;99.90;;;;;;4982529;28;20530;-70
2022/10/09 05:08:13;;;;;;;8.27;2.28;;;7.70;99.90;;;;;;4984946;28;20031;-71
2022/10/09 05:10:38;;;;;;;8.80;2.80;;;7.70;99.90;;;;;;4980599;28;20391;-70
2022/10/09 05:13:04;;;;;;;7.50;2.22;;;7.70;99.90;;;;;;4985316;28;20092;-70
2022/10/09 05:15:30;;;;;;;8.18;2.45;;;7.80;99.90;;;;;;4982019;28;20171;-70
2022/10/09 05:17:56;;;;;;;8.32;2.15;;;7.80;99.90;;;;;;4982002;28;20034;-71
2022/10/09 05:20:22;;;;;;;8.70;2.58;;;7.80;99.90;;;;;;4982295;28;20046;-70
2022/10/09 05:22:47;;;;;;;13.63;2.85;;;7.80;99.90;;;;;;4983971;28;20181;-70
2022/10/09 05:25:14;;;;;;;8.20;2.67;;;7.80;99.90;;;;;;4981645;28;20066;-71
2022/10/09 05:27:39;;;;;;;10.20;3.00;;;7.80;99.90;;;;;;4980310;28;20117;-70
2022/10/09 05:30:06;;;;;;;7.68;2.85;;;7.80;99.90;;;;;;4983341;28;20154;-69
2022/10/09 05:32:32;;;;;;;10.95;2.80;;;7.80;99.90;;;;;;4981405;28;20058;-70
2022/10/09 05:34:57;;;;;;;8.43;2.90;;;7.80;99.90;;;;;;4982172;28;20057;-70
2022/10/09 05:37:23;;;;;;;9.15;2.30;;;7.70;99.90;;;;;;4981512;28;20419;-70
2022/10/09 05:39:48;;;;;;;9.20;2.28;;;7.70;99.90;;;;;;4980743;28;20073;-70
2022/10/09 05:42:14;;;;;;;6.65;3.50;;;7.70;99.90;;;;;;4983682;28;20487;-70
2022/10/09 05:44:39;;;;;;;11.73;2.78;;;7.70;99.90;;;;;;4980755;28;20109;-69
2022/10/09 05:47:05;;;;;;;7.78;2.55;;;7.70;99.90;;;;;;4983804;28;20412;-71
2022/10/09 05:49:31;;;;;;;9.93;2.03;;;7.70;99.90;;;;;;4980205;28;20202;-70
2022/10/09 05:51:56;;;;;;;9.43;2.30;;;7.70;99.90;;;;;;4982925;28;20700;-69
2022/10/09 05:54:22;;;;;;;7.72;2.35;;;7.60;99.90;;;;;;4982407;28;20349;-70
2022/10/09 05:56:47;;;;;;;7.35;2.58;;;7.60;99.90;;;;;;4981926;28;20043;-70
2022/10/09 05:59:18;;;;;;;18.38;3.35;;;7.60;99.90;;;;;;4983720;28;20035;-70
2022/10/09 06:01:45;;;;;;;;;;;7.60;99.90;;;;;;4981614;28;20118;-70
2022/10/09 06:04:19;;;;;;;7.13;3.05;;;7.50;99.90;;;;;;4983940;28;20040;-70
2022/10/09 06:06:47;;;;;;;7.03;2.47;;;7.50;99.90;;;;;;4976980;28;20043;-71
2022/10/09 06:09:14;;;;;;;11.65;3.00;;;7.50;99.90;;;;;;4983559;28;20042;-71
2022/10/09 06:11:41;;;;;;;12.98;2.67;;;7.50;99.90;;;;;;4984873;28;20038;-70
2022/10/09 06:14:08;;;;;;;8.43;2.22;;;7.50;99.90;;;;;;4979670;28;20035;-70
2022/10/09 06:16:39;;;;;;;7.63;1.95;;;7.50;99.90;;;;;;4979236;28;20368;-70
2022/10/09 06:19:05;;;;;;;10.10;2.28;;;7.50;99.90;;;;;;4982477;28;20618;-70
2022/10/09 06:21:31;;;;;;;6.50;2.25;;;7.50;99.90;;;;;;4980827;28;20050;-70
2022/10/09 06:23:59;;;;;;;6.07;2.30;;;7.50;99.90;;;;;;4982340;28;20039;-70
2022/10/09 06:26:28;;;;;;;9.50;2.53;;;7.50;99.90;;;;;;4982164;28;20054;-70
2022/10/09 06:28:54;;;;;;;7.95;2.80;;;7.50;99.90;;;;;;4980007;28;20034;-70
2022/10/09 06:31:22;;;;;;;6.47;2.40;;;7.60;99.90;;;;;;4981187;28;20039;-70
2022/10/09 06:33:49;;;;;;;8.65;2.60;;;7.60;99.90;;;;;;4980753;28;20038;-70
2022/10/09 06:36:23;;;;;;;8.02;2.65;;;7.60;99.90;;;;;;4980598;28;20034;-70
2022/10/09 06:38:49;;;;;;;5.35;2.70;;;7.60;99.90;;;;;;4980696;28;20030;-70
2022/10/09 06:41:22;;;;;;;6.60;2.80;;;7.60;99.90;;;;;;4980271;28;20058;-71
2022/10/09 06:43:52;;;;;;;5.75;2.67;;;7.70;99.90;;;;;;4982213;28;20080;-70
2022/10/09 06:46:20;;;;;;;7.68;2.42;;;7.70;99.90;;;;;;4981049;28;20042;-70
2022/10/09 06:48:45;;;;;;;8.25;2.92;;;7.70;99.90;;;;;;4982597;28;20117;-70
2022/10/09 06:51:14;;;;;;;8.07;2.40;;;7.70;99.90;;;;;;4978954;28;20132;-69
2022/10/09 06:53:42;;;;;;;6.20;2.90;;;7.80;99.90;;;;;;4983235;28;20026;-70
2022/10/09 06:56:09;;;;;;;6.75;2.05;;;7.80;99.90;;;;;;4989326;28;20034;-70
2022/10/09 06:58:35;;;;;;;7.97;2.60;;;7.90;99.90;;;;;;4988248;28;20487;-69
2022/10/09 07:01:05;;;;;;;9.45;2.97;;;7.90;99.90;;;;;;4988563;28;20077;-70
2022/10/09 07:03:32;;;;;;;11.40;2.97;;;7.90;99.90;;;;;;4988124;28;20464;-70
2022/10/09 07:06:09;;;;;;;13.65;3.22;;;8.00;99.90;;;;;;4988268;28;20718;-70
2022/10/09 07:08:35;;;;;;;9.45;3.47;;;8.10;99.90;;;;;;4989677;28;20048;-71
2022/10/09 07:11:29;;;;;;;6.40;2.92;;;8.10;99.90;;;;;;4989855;28;20033;-70
2022/10/09 07:13:57;;;;;;;9.30;2.50;;;8.20;99.90;;;;;;4986345;28;20049;-70
2022/10/09 07:16:26;;;;;;;10.60;3.33;;;8.30;99.90;;;;;;4985929;28;20121;-70
2022/10/09 07:18:52;;;;;;;9.32;2.70;;;8.40;99.90;;;;;;4984896;28;20054;-70
2022/10/09 07:21:18;;;;;;;7.85;3.15;;;8.40;99.90;;;;;;4979557;28;20125;-71
2022/10/09 07:23:45;;;;;;;6.72;2.58;;;8.50;99.90;;;;;;4977795;28;20089;-69
2022/10/09 07:26:14;;;;;;;6.07;2.53;;;8.60;99.90;;;;;;4977653;28;20038;-70
2022/10/09 07:28:41;;;;;;;7.75;3.92;;;8.70;99.90;;;;;;4980593;28;20092;-69
2022/10/09 07:31:06;;;;;;;10.57;2.42;;;8.70;99.90;;;;;;4976922;28;20039;-69
2022/10/09 07:33:32;;;;;;;7.85;2.58;;;8.80;99.90;;;;;;4978728;28;21478;-70
2022/10/09 07:35:59;;;;;;;8.05;2.63;;;8.90;99.90;;;;;;4978239;28;20054;-70
2022/10/09 07:38:26;;;;;;;8.93;2.42;;;9.00;99.90;;;;;;4976742;28;20050;-70
2022/10/09 07:40:52;;;;;;;9.25;2.35;;;9.20;99.90;;;;;;4984018;28;20030;-69
2022/10/09 07:43:19;;;;;;;7.65;2.20;;;9.30;99.90;;;;;;4979400;28;20546;-70
2022/10/09 07:45:44;;;;;;;10.00;3.40;;;9.30;99.90;;;;;;4974031;28;20115;-69
2022/10/09 07:48:10;;;;;;;5.35;2.38;;;9.40;99.90;;;;;;4970158;28;20140;-69
2022/10/09 07:50:36;;;;;;;6.63;1.90;;;9.50;99.90;;;;;;4974600;28;20046;-70
2022/10/09 07:53:02;;;;;;;5.95;2.10;;;9.50;99.90;;;;;;4969841;28;20037;-70
2022/10/09 07:55:27;;;;;;;9.82;2.60;;;9.70;99.90;;;;;;4972657;28;20046;-70
2022/10/09 07:57:53;;;;;;;6.40;1.63;;;9.80;99.90;;;;;;4973884;28;20399;-70
2022/10/09 08:00:18;;;;;;;15.18;2.20;;;9.90;99.90;;;;;;4974985;28;20039;-70
2022/10/09 08:02:44;;;;;;;6.45;2.28;;;10.00;99.90;;;;;;4969738;28;20114;-69
2022/10/09 08:05:10;;;;;;;10.27;2.50;;;10.20;99.90;;;;;;4971943;28;20042;-69
2022/10/09 08:07:36;;;;;;;9.98;1.90;;;10.30;99.90;;;;;;4966356;28;20034;-69
2022/10/09 08:10:02;;;;;;;5.03;1.50;;;10.40;99.90;;;;;;4972638;28;20084;-69
2022/10/09 08:12:27;;;;;;;6.78;1.85;;;10.40;99.90;;;;;;4970396;28;20027;-69
2022/10/09 08:14:53;;;;;;;4.78;1.20;;;10.60;99.90;;;;;;4972033;28;20047;-68
2022/10/09 08:17:18;;;;;;;6.15;1.40;;;10.60;99.90;;;;;;4971674;28;20518;-70
2022/10/09 08:19:44;;;;;;;4.85;1.33;;;10.70;99.90;;;;;;4971331;28;20647;-69
2022/10/09 08:22:10;;;;;;;8.07;1.05;;;10.80;99.90;;;;;;4978648;28;20142;-69
2022/10/09 08:24:36;;;;;;;10.30;1.73;;;10.90;99.90;;;;;;4968621;28;20043;-69
2022/10/09 08:27:02;;;;;;;4.47;1.25;;;11.00;99.90;;;;;;4984984;28;20045;-69
2022/10/09 08:29:28;;;;;;;5.78;1.58;;;11.00;99.90;;;;;;4973966;28;20047;-69
2022/10/09 08:31:53;;;;;;;6.07;2.53;;;11.00;99.90;;;;;;4978755;28;20042;-69
2022/10/09 08:34:19;;;;;;;8.27;1.50;;;11.10;99.90;;;;;;4984669;28;20525;-69
2022/10/09 08:36:45;;;;;;;7.72;1.70;;;11.10;99.90;;;;;;4977892;28;20061;-71
2022/10/09 08:39:10;;;;;;;5.85;1.50;;;11.20;99.90;;;;;;4974103;28;20031;-68
2022/10/09 08:41:46;;;;;;;6.63;1.70;;;11.20;99.90;;;;;;4976323;28;20169;-70
2022/10/09 08:44:21;;;;;;;11.20;1.90;;;11.30;99.90;;;;;;4970484;28;20104;-68
2022/10/09 08:47:00;;;;;;;7.32;1.70;;;11.40;99.90;;;;;;4977960;28;20554;-69
2022/10/09 08:49:35;;;;;;;6.40;1.73;;;11.50;99.90;;;;;;4975991;28;20101;-69
2022/10/09 08:52:30;;;;;;;8.25;2.35;;;11.60;99.90;;;;;;4974202;28;20034;-70
2022/10/09 08:55:02;;;;;;;6.82;1.40;;;11.60;99.90;;;;;;4985001;28;20599;-70
2022/10/09 08:57:33;;;;;;;8.35;1.67;;;11.70;99.90;;;;;;4979806;28;20093;-69
2022/10/09 08:59:58;;;;;;;4.07;1.50;;;11.80;99.90;;;;;;4970404;28;20034;-70
2022/10/09 09:02:51;;;;;;;7.10;1.67;;;11.90;99.90;;;;;;4977535;28;20113;-69
2022/10/09 09:05:37;;;;;;;6.88;1.70;;;12.00;99.90;;;;;;4978427;28;20049;-70
2022/10/09 09:08:30;;;;;;;8.13;1.35;;;12.10;99.90;;;;;;4980075;28;20038;-70
2022/10/09 09:11:33;;;;;;;4.47;1.27;;;12.20;99.90;;;;;;4970792;28;20034;-69
2022/10/09 09:14:21;;;;;;;5.82;1.70;;;12.30;99.90;;;;;;4968519;28;20031;-69
2022/10/09 09:16:49;;;;;;;6.15;1.70;;;12.50;99.90;;;;;;4977157;28;20031;-70
2022/10/09 09:19:39;;;;;;;3.75;0.80;;;12.60;99.90;;;;;;4975127;28;20053;-70
2022/10/09 09:22:12;;;;;;;5.68;1.42;;;12.60;99.90;;;;;;4981083;28;20041;-69
2022/10/09 09:24:49;;;;;;;3.35;1.13;;;12.80;99.90;;;;;;4974986;28;20391;-69
2022/10/09 09:27:18;;;;;;;3.15;1.33;;;12.80;99.90;;;;;;4985145;28;20110;-70
2022/10/09 09:30:15;;;;;;;7.53;1.30;;;12.90;99.90;;;;;;4983787;28;20036;-68
2022/10/09 09:33:17;;;;;;;7.35;1.38;;;13.00;99.90;;;;;;4979828;28;20034;-70
2022/10/09 09:35:58;;;;;;;5.35;1.38;;;13.10;99.90;;;;;;4983653;28;20038;-69
2022/10/09 09:38:23;;;;;;;4.45;1.00;;;13.20;99.90;;;;;;4983309;28;20042;-69
2022/10/09 09:40:49;;;;;;;5.72;1.83;;;13.20;99.90;;;;;;4985721;28;20439;-69
2022/10/09 09:43:21;;;;;;;3.55;1.10;;;13.30;99.90;;;;;;4978876;28;20484;-69
2022/10/09 09:45:50;;;;;;;6.88;1.02;;;13.30;99.90;;;;;;4982977;28;20042;-70
2022/10/09 09:48:38;;;;;;;10.98;1.42;;;13.40;99.90;;;;;;4980500;28;20034;-69
2022/10/09 09:51:10;;;;;;;5.13;1.27;;;13.50;99.90;;;;;;4975151;28;20070;-69
2022/10/09 09:53:41;;;;;;;5.30;1.35;;;13.60;99.90;;;;;;4985136;28;20034;-70
2022/10/09 09:56:06;;;;;;;;;;;13.60;99.90;;;;;;4989281;28;20405;-69
2022/10/09 09:58:46;;;;;;;3.17;0.93;;;13.60;99.90;;;;;;4988176;28;19921;-68
2022/10/09 10:01:38;;;;;;;9.40;2.58;;;13.60;99.90;;;;;;4977345;28;20030;-69
2022/10/09 10:04:17;;;;;;;4.05;1.70;;;13.70;99.90;;;;;;4977737;28;20514;-68
2022/10/09 10:06:43;;;;;;;5.28;1.58;;;13.70;99.90;;;;;;4982363;28;20054;-69
2022/10/09 10:09:14;;;;;;;6.35;1.10;;;13.70;99.90;;;;;;4982573;28;20065;-68
2022/10/09 10:11:56;;;;;;;7.82;1.75;;;13.70;99.90;;;;;;4980192;28;20073;-70
2022/10/09 10:14:21;;;;;;;3.83;1.30;;;13.80;99.90;;;;;;4978022;28;20077;-69
2022/10/09 10:16:49;;;;;;;6.75;1.20;;;13.80;99.90;;;;;;4980265;28;20035;-70
2022/10/09 10:19:24;;;;;;;7.63;1.52;;;13.80;99.90;;;;;;4979997;28;20443;-68
2022/10/09 10:22:00;;;;;;;7.50;1.10;;;13.90;99.90;;;;;;4982232;28;20709;-68
2022/10/09 10:24:41;;;;;;;7.68;1.42;;;14.00;99.90;;;;;;4977073;28;20039;-70
2022/10/09 10:27:18;;;;;;;6.93;1.23;;;14.00;99.90;;;;;;4983210;28;20038;-69
2022/10/09 10:29:46;;;;;;;9.27;1.27;;;14.00;99.90;;;;;;4976816;28;20035;-70
2022/10/09 10:32:33;;;;;;;3.30;1.05;;;14.10;99.90;;;;;;4972533;28;20042;-68
2022/10/09 10:35:07;;;;;;;7.03;2.78;;;14.10;99.90;;;;;;4983788;28;20101;-69
2022/10/09 10:37:46;;;;;;;5.82;1.52;;;14.10;99.90;;;;;;4981906;28;20047;-70
2022/10/09 10:40:29;;;;;;;4.03;1.35;;;14.10;99.90;;;;;;4978104;28;20034;-70
2022/10/09 10:43:19;;;;;;;7.65;1.75;;;14.20;99.90;;;;;;4970223;28;20034;-68
2022/10/09 10:46:16;;;;;;;11.43;2.90;;;14.30;99.90;;;;;;4973876;28;20396;-68
2022/10/09 10:48:46;;;;;;;3.65;1.30;;;14.30;99.90;;;;;;4978342;28;20037;-69
2022/10/09 10:51:12;;;;;;;;;;;14.30;99.90;;;;;;4979804;28;20050;-69
2022/10/09 10:54:19;;;;;;;4.32;1.27;;;14.30;99.90;;;;;;4975571;28;19976;-69
2022/10/09 10:56:50;;;;;;;6.28;1.50;;;14.40;99.90;;;;;;4974788;28;20483;-69
2022/10/09 10:59:32;;;;;;;4.95;1.80;;;14.40;99.90;;;;;;4974669;28;20503;-70
2022/10/09 11:02:33;;;;;;;3.88;1.23;;;14.40;99.90;;;;;;4971212;28;20488;-69
2022/10/09 11:05:28;;;;;;;7.38;1.48;;;14.50;99.90;;;;;;4950514;28;20550;-69
2022/10/09 11:08:02;;;;;;;5.70;1.35;;;14.50;99.90;;;;;;4970424;28;20053;-69
2022/10/09 11:10:58;;;;;;;4.35;1.40;;;14.50;99.90;;;;;;4971884;28;20288;-69
2022/10/09 11:13:26;;;;;;;6.55;1.67;;;14.60;99.90;;;;;;4968707;28;20078;-69
2022/10/09 11:16:24;;;;;;;4.40;1.10;;;14.60;99.90;;;;;;4981320;28;20042;-71
2022/10/09 11:19:07;;;;;;;4.70;1.27;;;14.60;99.90;;;;;;4969913;28;20035;-70
2022/10/09 11:21:55;;;;;;;4.68;1.38;;;14.60;99.90;;;;;;4976902;28;20126;-68
2022/10/09 11:24:36;;;;;;;6.13;1.48;;;14.60;99.90;;;;;;4965413;28;20092;-68
2022/10/09 11:27:10;;;;;;;4.72;1.85;;;14.60;99.90;;;;;;4981766;28;20041;-69
2022/10/09 11:29:46;;;;;;;3.63;1.38;;;14.70;99.90;;;;;;4978589;28;20088;-72
2022/10/09 11:32:34;;;;;;;5.95;1.10;;;14.70;99.90;;;;;;4976886;28;20662;-69
2022/10/09 11:35:13;;;;;;;4.85;1.65;;;14.70;99.90;;;;;;4974580;28;20045;-70
2022/10/09 11:37:42;;;;;;;3.78;1.63;;;14.70;99.90;;;;;;4981493;28;20399;-69
2022/10/09 11:40:17;;;;;;;7.75;1.88;;;14.70;99.90;;;;;;4980663;28;20380;-70
2022/10/09 11:42:48;;;;;;;6.45;1.85;;;14.70;99.90;;;;;;4977477;28;20494;-68
2022/10/09 11:45:28;;;;;;;4.60;1.65;;;14.70;99.90;;;;;;4981052;28;20128;-72
2022/10/09 11:48:11;;;;;;;3.33;1.10;;;14.70;99.90;;;;;;4972411;28;20046;-69
2022/10/09 11:51:15;;;;;;;5.90;1.52;;;14.70;99.90;;;;;;4979137;28;20038;-69
2022/10/09 11:53:43;;;;;;;4.47;1.13;;;14.70;99.90;;;;;;4967311;28;21637;-69
2022/10/09 11:56:24;;;;;;;3.15;1.15;;;14.70;99.90;;;;;;4983044;28;20045;-69
2022/10/09 11:59:00;;;;;;;3.22;1.15;;;14.80;99.90;;;;;;4948610;28;20078;-70
2022/10/09 12:01:43;;;;;;;5.43;1.40;;;14.90;99.90;;;;;;4973435;28;20101;-69
2022/10/09 12:04:23;;;;;;;6.50;1.55;;;14.90;99.90;;;;;;4972920;28;20031;-69
2022/10/09 12:06:58;;;;;;;4.47;1.20;;;14.80;99.90;;;;;;4975619;28;20042;-70
2022/10/09 12:09:41;;;;;;;3.40;1.08;;;14.80;99.90;;;;;;4977519;28;20100;-69
2022/10/09 12:12:19;;;;;;;4.10;1.20;;;14.90;99.90;;;;;;4976697;28;20034;-70
2022/10/09 12:14:47;;;;;;;4.15;1.25;;;14.80;99.90;;;;;;4973952;28;20062;-70
2022/10/09 12:17:21;;;;;;;2.83;1.17;;;14.90;99.90;;;;;;4977743;28;20035;-70
2022/10/09 12:20:04;;;;;;;6.35;1.20;;;14.90;99.90;;;;;;4963925;28;20043;-69
2022/10/09 12:22:40;;;;;;;3.88;0.98;;;14.90;99.90;;;;;;4970226;28;20521;-70
2022/10/09 12:25:14;;;;;;;2.75;0.85;;;15.00;99.90;;;;;;4975169;28;20586;-70
2022/10/09 12:27:40;;;;;;;6.30;0.80;;;15.00;99.90;;;;;;4976764;28;20129;-70
2022/10/09 12:30:12;;;;;;;3.65;1.08;;;14.90;99.90;;;;;;4974596;28;20126;-71
2022/10/09 12:32:44;;;;;;;2.90;1.00;;;14.90;99.90;;;;;;4974204;28;20048;-70
2022/10/09 12:35:32;;;;;;;1.98;0.77;;;15.10;99.90;;;;;;4974354;28;20062;-71
2022/10/09 12:37:57;;;;;;;9.90;1.00;;;15.10;99.90;;;;;;4964964;28;20042;-70
2022/10/09 12:40:27;;;;;;;6.85;0.82;;;15.20;99.90;;;;;;4974830;28;20090;-71
2022/10/09 12:42:54;;;;;;;4.50;1.05;;;15.20;99.90;;;;;;4973011;28;20094;-69
2022/10/09 12:45:29;;;;;;;3.08;0.82;;;15.20;99.90;;;;;;4976264;28;20033;-71
2022/10/09 12:47:57;;;;;;;4.60;0.90;;;15.20;99.90;;;;;;4977345;28;20058;-71
2022/10/09 12:50:31;;;;;;;6.15;1.10;;;15.20;99.90;;;;;;4978913;28;20043;-70
2022/10/09 12:52:58;;;;;;;5.93;1.63;;;15.10;99.90;;;;;;4977631;28;20126;-70
2022/10/09 12:55:28;;;;;;;5.45;0.70;;;15.10;99.90;;;;;;4979754;28;20046;-70
2022/10/09 12:58:30;;;;;;;7.47;0.80;;;15.10;99.90;;;;;;4980665;28;20058;-70
2022/10/09 13:00:58;;;;;;;5.22;0.82;;;15.10;99.90;;;;;;4960453;28;20048;-69
2022/10/09 13:03:41;;;;;;;2.25;0.77;;;15.20;99.90;;;;;;4980776;28;20038;-69
2022/10/09 13:06:20;;;;;;;7.43;0.93;;;15.30;99.90;;;;;;4981411;28;20042;-70
2022/10/09 13:08:55;;;;;;;3.30;0.50;;;15.30;99.90;;;;;;4980277;28;20034;-69
2022/10/09 13:11:30;;;;;;;2.25;0.75;;;15.30;99.90;;;;;;4982609;28;20046;-70
2022/10/09 13:13:55;;;;;;;6.32;1.17;;;15.30;99.90;;;;;;4978095;28;20046;-69